createdAt,value
2022-09-26T00:01:16.767Z,17.55
2022-09-26T00:03:46.650Z,18.98
2022-09-26T00:06:16.146Z,17.52
2022-09-26T00:08:44.726Z,18.33
2022-09-26T00:11:14.240Z,19.08
2022-09-26T00:13:42.444Z,20.02
2022-09-26T00:16:11.188Z,17.67
2022-09-26T00:18:39.785Z,18.10
2022-09-26T00:21:12.595Z,18.52
2022-09-26T00:23:41.885Z,19.70
2022-09-26T00:26:10.710Z,22.08
2022-09-26T00:28:38.299Z,18.05
2022-09-26T00:31:08.464Z,18.55
2022-09-26T00:33:35.878Z,19.80
2022-09-26T00:36:04.988Z,19.67
2022-09-26T00:38:32.874Z,19.42
2022-09-26T00:41:00.753Z,21.05
2022-09-26T00:43:47.787Z,22.48
2022-09-26T00:46:19.337Z,22.15
2022-09-26T00:48:49.780Z,22.45
2022-09-26T00:51:17.594Z,21.15
2022-09-26T00:53:49.233Z,23.05
2022-09-26T00:56:25.226Z,20.55
2022-09-26T00:58:56.440Z,24.05
2022-09-26T01:01:24.143Z,22.25
2022-09-26T01:03:52.081Z,21.85
2022-09-26T01:06:20.146Z,23.33
2022-09-26T01:08:59.747Z,22.73
2022-09-26T01:11:28.145Z,23.35
2022-09-26T01:13:57.098Z,27.20
2022-09-26T01:16:24.592Z,24.02
2022-09-26T01:18:54.030Z,22.58
2022-09-26T01:21:24.469Z,22.77
2022-09-26T01:24:12.044Z,23.05
2022-09-26T01:27:17.355Z,22.33
2022-09-26T01:30:03.557Z,24.17
2022-09-26T01:32:54.011Z,24.55
2022-09-26T01:35:35.715Z,22.75
2022-09-26T01:38:27.142Z,23.73
2022-09-26T01:41:28.218Z,22.90
2022-09-26T01:44:20.824Z,21.90
2022-09-26T01:47:06.120Z,21.65
2022-09-26T01:49:45.054Z,24.23
2022-09-26T01:52:27.771Z,22.85
2022-09-26T01:55:16.767Z,25.27
2022-09-26T01:58:02.093Z,24.37
2022-09-26T02:00:30.426Z,27.77
2022-09-26T02:02:59.649Z,33.70
2022-09-26T02:05:33.221Z,26.80
2022-09-26T02:08:06.708Z,24.37
2022-09-26T02:10:38.839Z,24.80
2022-09-26T02:15:47.537Z,25.50
2022-09-26T02:18:20.642Z,26.73
2022-09-26T02:20:55.749Z,27.75
2022-09-26T02:23:23.352Z,24.52
2022-09-26T02:25:52.612Z,27.37
2022-09-26T02:28:20.739Z,26.80
2022-09-26T02:30:49.817Z,28.17
2022-09-26T02:33:17.497Z,26.25
2022-09-26T02:35:57.539Z,24.25
2022-09-26T02:38:30.853Z,27.83
2022-09-26T02:41:14.028Z,25.60
2022-09-26T02:44:00.338Z,23.92
2022-09-26T02:46:39.691Z,25.58
2022-09-26T02:49:32.095Z,23.95
2022-09-26T02:52:14.536Z,24.58
2022-09-26T02:55:19.741Z,23.35
2022-09-26T02:58:03.889Z,21.37
2022-09-26T03:01:13.542Z,21.27
2022-09-26T03:03:53.405Z,20.55
2022-09-26T03:06:25.788Z,21.05
2022-09-26T03:08:54.204Z,20.48
2022-09-26T03:11:24.371Z,21.27
2022-09-26T03:13:53.844Z,22.10
2022-09-26T03:16:22.356Z,22.37
2022-09-26T03:18:54.371Z,21.42
2022-09-26T03:21:23.465Z,22.33
2022-09-26T03:23:51.254Z,22.77
2022-09-26T03:26:24.577Z,22.73
2022-09-26T03:28:56.307Z,22.87
2022-09-26T03:31:25.359Z,20.48
2022-09-26T03:33:54.133Z,22.02
2022-09-26T03:36:22.511Z,21.45
2022-09-26T03:38:50.106Z,22.17
2022-09-26T03:41:18.222Z,24.12
2022-09-26T03:43:47.523Z,23.80
2022-09-26T03:46:15.944Z,24.05
2022-09-26T03:48:43.725Z,24.15
2022-09-26T03:51:13.387Z,24.80
2022-09-26T03:53:43.301Z,24.35
2022-09-26T03:56:13.531Z,25.48
2022-09-26T03:58:43.737Z,23.25
2022-09-26T04:01:14.070Z,24.48
2022-09-26T04:03:49.328Z,24.00
2022-09-26T04:06:20.498Z,25.60
2022-09-26T04:08:49.961Z,25.33
2022-09-26T04:11:19.820Z,25.50
2022-09-26T04:13:53.193Z,25.05
2022-09-26T04:16:23.186Z,26.58
2022-09-26T04:18:56.663Z,27.70
2022-09-26T04:21:27.180Z,25.17
2022-09-26T04:23:55.890Z,27.05
2022-09-26T04:26:24.515Z,25.70
2022-09-26T04:29:12.209Z,24.87
2022-09-26T04:31:41.759Z,23.98
2022-09-26T04:34:11.409Z,23.90
2022-09-26T04:36:39.997Z,25.77
2022-09-26T04:39:07.633Z,22.87
2022-09-26T04:41:35.554Z,26.37
2022-09-26T04:44:03.050Z,25.90
2022-09-26T04:46:31.573Z,25.05
2022-09-26T04:49:00.468Z,26.02
2022-09-26T04:51:30.243Z,26.73
2022-09-26T04:53:59.165Z,25.17
2022-09-26T04:56:27.990Z,23.33
2022-09-26T04:58:56.761Z,27.58
2022-09-26T05:01:25.462Z,28.27
2022-09-26T05:03:57.637Z,26.55
2022-09-26T05:06:25.938Z,22.90
2022-09-26T05:08:54.764Z,24.40
2022-09-26T05:11:24.492Z,28.08
2022-09-26T05:13:53.873Z,28.45
2022-09-26T05:16:21.840Z,24.98
2022-09-26T05:18:51.913Z,27.13
2022-09-26T05:21:19.712Z,25.62
2022-09-26T05:24:05.646Z,28.70
2022-09-26T05:26:43.613Z,28.00
2022-09-26T05:29:12.131Z,26.08
2022-09-26T05:31:40.913Z,28.08
2022-09-26T05:34:13.150Z,30.37
2022-09-26T05:36:43.339Z,28.27
2022-09-26T05:39:30.674Z,27.87
2022-09-26T05:41:59.018Z,28.65
2022-09-26T05:44:27.477Z,27.85
2022-09-26T05:46:57.362Z,28.83
2022-09-26T05:49:26.350Z,30.45
2022-09-26T05:51:53.871Z,29.33
2022-09-26T05:54:21.877Z,34.72
2022-09-26T05:56:51.176Z,30.35
2022-09-26T05:59:20.403Z,30.58
2022-09-26T06:01:50.314Z,31.80
2022-09-26T06:04:21.190Z,29.08
2022-09-26T06:06:51.285Z,35.17
2022-09-26T06:09:18.998Z,32.47
2022-09-26T06:11:47.135Z,32.83
2022-09-26T06:14:14.553Z,34.88
2022-09-26T06:16:42.365Z,38.08
2022-09-26T06:19:09.847Z,36.50
2022-09-26T06:21:39.933Z,33.63
2022-09-26T06:24:10.315Z,30.05
2022-09-26T06:26:37.826Z,30.77
2022-09-26T06:29:05.506Z,31.62
2022-09-26T06:31:34.151Z,33.80
2022-09-26T06:34:05.584Z,31.65
2022-09-26T06:36:34.733Z,33.35
2022-09-26T06:39:02.562Z,31.65
2022-09-26T06:41:31.517Z,30.75
2022-09-26T06:43:58.893Z,32.35
2022-09-26T06:46:27.957Z,30.42
2022-09-26T06:48:55.704Z,29.75
2022-09-26T06:51:24.447Z,31.50
2022-09-26T06:53:53.267Z,29.10
2022-09-26T06:56:21.019Z,29.65
2022-09-26T06:58:49.615Z,30.50
2022-09-26T07:01:18.490Z,30.50
2022-09-26T07:03:47.106Z,30.75
2022-09-26T07:06:14.700Z,33.20
2022-09-26T07:09:03.041Z,28.95
2022-09-26T07:12:09.443Z,28.40
2022-09-26T07:14:19.095Z,27.15
2022-09-26T07:16:48.849Z,31.48
2022-09-26T07:19:17.058Z,31.48
2022-09-26T07:21:45.217Z,30.40
2022-09-26T07:24:15.865Z,28.00
2022-09-26T07:26:43.983Z,29.50
2022-09-26T07:29:12.434Z,29.08
2022-09-26T07:31:40.115Z,26.25
2022-09-26T07:34:08.770Z,26.90
2022-09-26T07:36:38.775Z,23.40
2022-09-26T07:39:06.545Z,26.80
2022-09-26T07:41:34.003Z,21.58
2022-09-26T07:44:58.963Z,19.23
2022-09-26T07:47:08.114Z,18.90
2022-09-26T07:49:54.295Z,18.08
2022-09-26T07:52:22.633Z,18.37
2022-09-26T07:54:51.356Z,19.92
2022-09-26T07:57:19.687Z,18.55
2022-09-26T07:59:50.459Z,17.67
2022-09-26T08:02:22.827Z,18.12
2022-09-26T08:04:50.743Z,16.65
2022-09-26T08:07:18.877Z,16.83
2022-09-26T08:09:47.149Z,16.87
2022-09-26T08:12:17.884Z,17.10
2022-09-26T08:14:54.989Z,16.17
2022-09-26T08:17:22.815Z,15.30
2022-09-26T08:19:50.205Z,17.02
2022-09-26T08:22:17.673Z,15.63
2022-09-26T08:24:50.634Z,16.70
2022-09-26T08:27:18.302Z,17.05
2022-09-26T08:29:48.528Z,17.12
2022-09-26T08:32:17.454Z,16.70
2022-09-26T08:34:45.022Z,16.80
2022-09-26T08:37:16.759Z,18.62
2022-09-26T08:39:44.246Z,17.52
2022-09-26T08:42:23.822Z,17.75
2022-09-26T08:45:26.948Z,16.73
2022-09-26T08:48:05.631Z,16.25
2022-09-26T08:50:39.866Z,15.80
2022-09-26T08:53:13.909Z,17.13
2022-09-26T08:55:46.678Z,15.73
2022-09-26T08:58:18.337Z,15.18
2022-09-26T09:00:48.901Z,14.80
2022-09-26T09:03:59.357Z,15.43
2022-09-26T09:06:28.299Z,14.93
2022-09-26T09:08:56.701Z,16.08
2022-09-26T09:11:34.064Z,14.23
2022-09-26T09:14:34.681Z,13.95
2022-09-26T09:17:08.946Z,12.20
2022-09-26T09:20:13.807Z,12.30
2022-09-26T09:22:50.554Z,12.25
2022-09-26T09:25:24.087Z,12.48
2022-09-26T09:28:32.262Z,14.43
2022-09-26T09:31:06.802Z,12.55
2022-09-26T09:33:45.482Z,12.27
2022-09-26T09:36:28.545Z,11.55
2022-09-26T09:39:03.821Z,11.85
2022-09-26T09:41:47.498Z,12.93
2022-09-26T09:44:34.288Z,11.88
2022-09-26T09:47:02.262Z,11.07
2022-09-26T09:49:30.621Z,12.52
2022-09-26T09:52:26.618Z,14.87
2022-09-26T09:55:06.763Z,11.18
2022-09-26T09:57:43.786Z,10.32
2022-09-26T10:00:18.281Z,11.73
2022-09-26T10:03:06.169Z,12.60
2022-09-26T10:05:45.611Z,10.57
2022-09-26T10:08:16.919Z,10.82
2022-09-26T10:11:07.914Z,10.52
2022-09-26T10:13:39.840Z,12.55
2022-09-26T10:16:15.442Z,11.85
2022-09-26T10:19:04.149Z,9.05
2022-09-26T10:21:40.839Z,7.90
2022-09-26T10:24:23.996Z,8.70
2022-09-26T10:26:54.472Z,9.88
2022-09-26T10:29:35.455Z,9.48
2022-09-26T10:32:03.130Z,8.05
2022-09-26T10:34:32.825Z,9.85
2022-09-26T10:37:23.919Z,7.97
2022-09-26T10:40:12.613Z,8.85
2022-09-26T10:42:41.112Z,8.80
2022-09-26T10:45:17.932Z,7.87
2022-09-26T10:47:50.904Z,7.10
2022-09-26T10:50:25.674Z,6.40
2022-09-26T10:53:10.227Z,7.10
2022-09-26T10:55:48.630Z,5.87
2022-09-26T10:58:25.163Z,4.87
2022-09-26T11:00:53.951Z,5.05
2022-09-26T11:03:34.237Z,6.60
2022-09-26T11:06:04.656Z,6.47
2022-09-26T11:08:33.838Z,6.72
2022-09-26T11:11:05.279Z,6.55
2022-09-26T11:13:50.133Z,7.62
2022-09-26T11:16:20.303Z,6.00
2022-09-26T11:19:04.385Z,9.63
2022-09-26T11:21:42.054Z,6.37
2022-09-26T11:24:37.281Z,5.82
2022-09-26T11:27:22.633Z,6.62
2022-09-26T11:30:09.432Z,5.28
2022-09-26T11:32:43.258Z,5.32
2022-09-26T11:35:46.148Z,5.85
2022-09-26T11:38:38.858Z,5.55
2022-09-26T11:41:43.809Z,5.30
2022-09-26T11:44:23.689Z,5.68
2022-09-26T11:47:10.872Z,6.07
2022-09-26T11:50:12.212Z,5.22
2022-09-26T11:52:49.468Z,6.00
2022-09-26T11:55:26.422Z,6.40
2022-09-26T11:58:03.377Z,5.40
2022-09-26T12:00:38.931Z,4.90
2022-09-26T12:03:26.424Z,5.80
2022-09-26T12:06:18.924Z,5.53
2022-09-26T12:09:31.525Z,5.40
2022-09-26T12:12:09.614Z,5.75
2022-09-26T12:15:02.259Z,5.07
2022-09-26T12:17:52.528Z,4.82
2022-09-26T12:20:55.328Z,4.50
2022-09-26T12:23:29.130Z,4.72
2022-09-26T12:26:15.048Z,6.72
2022-09-26T12:28:51.115Z,5.47
2022-09-26T12:31:42.678Z,6.10
2022-09-26T12:34:22.422Z,5.85
2022-09-26T12:37:02.045Z,5.80
2022-09-26T12:39:35.175Z,5.53
2022-09-26T12:42:17.987Z,7.03
2022-09-26T12:45:07.282Z,5.45
2022-09-26T12:47:50.802Z,6.62
2022-09-26T12:50:20.918Z,5.15
2022-09-26T12:52:54.450Z,6.22
2022-09-26T12:55:47.723Z,4.78
2022-09-26T12:58:55.416Z,6.05
2022-09-26T13:01:33.213Z,5.70
2022-09-26T13:04:06.930Z,6.50
2022-09-26T13:06:48.914Z,5.78
2022-09-26T13:09:58.197Z,6.15
2022-09-26T13:13:07.147Z,6.10
2022-09-26T13:16:13.300Z,6.03
2022-09-26T13:18:44.882Z,4.85
2022-09-26T13:21:42.064Z,4.93
2022-09-26T13:24:14.318Z,5.95
2022-09-26T13:26:46.842Z,5.62
2022-09-26T13:29:30.564Z,5.72
2022-09-26T13:32:16.388Z,6.12
2022-09-26T13:34:50.292Z,8.65
2022-09-26T13:37:28.973Z,7.12
2022-09-26T13:40:09.900Z,6.60
2022-09-26T13:42:44.338Z,6.80
2022-09-26T13:45:33.831Z,7.72
2022-09-26T13:48:16.704Z,8.95
2022-09-26T13:50:49.225Z,6.95
2022-09-26T13:53:34.023Z,6.78
2022-09-26T13:56:38.439Z,6.60
2022-09-26T13:59:12.062Z,10.07
2022-09-26T14:02:00.462Z,8.05
2022-09-26T14:04:35.988Z,7.35
2022-09-26T14:07:29.666Z,10.95
2022-09-26T14:10:02.988Z,9.43
2022-09-26T14:12:34.038Z,10.02
2022-09-26T14:15:24.422Z,7.05
2022-09-26T14:17:51.739Z,9.07
2022-09-26T14:20:24.110Z,7.43
2022-09-26T14:22:56.870Z,5.95
2022-09-26T14:25:46.507Z,5.68
2022-09-26T14:28:17.240Z,9.13
2022-09-26T14:31:21.896Z,7.45
2022-09-26T14:33:57.314Z,7.05
2022-09-26T14:36:28.948Z,5.82
2022-09-26T14:38:56.771Z,5.40
2022-09-26T14:41:28.642Z,5.75
2022-09-26T14:44:02.814Z,4.72
2022-09-26T14:46:33.244Z,5.32
2022-09-26T14:49:06.315Z,8.20
2022-09-26T14:51:39.251Z,5.62
2022-09-26T14:54:37.321Z,6.45
2022-09-26T14:57:08.142Z,4.78
2022-09-26T14:59:35.649Z,5.07
2022-09-26T15:02:15.331Z,4.70
2022-09-26T15:04:44.987Z,5.05
2022-09-26T15:07:23.024Z,4.82
2022-09-26T15:10:04.752Z,6.70
2022-09-26T15:12:44.118Z,7.05
2022-09-26T15:15:38.848Z,4.78
2022-09-26T15:18:39.510Z,4.75
2022-09-26T15:21:18.047Z,5.95
2022-09-26T15:23:49.350Z,5.45
2022-09-26T15:26:23.498Z,4.78
2022-09-26T15:28:52.471Z,5.57
2022-09-26T15:31:28.518Z,5.62
2022-09-26T15:34:00.380Z,4.60
2022-09-26T15:36:30.040Z,4.90
2022-09-26T15:38:58.339Z,4.28
2022-09-26T15:41:44.014Z,4.18
2022-09-26T15:44:23.776Z,4.35
2022-09-26T15:46:51.557Z,4.47
2022-09-26T15:49:23.012Z,5.57
2022-09-26T15:51:53.651Z,5.30
2022-09-26T15:54:29.807Z,4.40
2022-09-26T15:57:00.819Z,4.15
2022-09-26T15:59:32.360Z,4.40
2022-09-26T16:02:00.465Z,5.15
2022-09-26T16:04:29.712Z,5.68
2022-09-26T16:07:04.662Z,14.20
2022-09-26T16:09:40.625Z,18.40
2022-09-26T16:12:17.198Z,16.25
2022-09-26T16:15:06.028Z,10.38
2022-09-26T16:17:49.248Z,10.07
2022-09-26T16:20:17.049Z,8.55
2022-09-26T16:23:00.371Z,7.32
2022-09-26T16:25:40.392Z,6.15
2022-09-26T16:28:10.144Z,6.90
2022-09-26T16:30:46.569Z,7.22
2022-09-26T16:33:30.786Z,5.75
2022-09-26T16:36:10.393Z,6.95
2022-09-26T16:38:37.845Z,9.98
2022-09-26T16:41:36.301Z,5.82
2022-09-26T16:44:25.186Z,5.43
2022-09-26T16:46:55.973Z,8.32
2022-09-26T16:49:46.500Z,6.30
2022-09-26T16:52:26.671Z,6.28
2022-09-26T16:54:58.885Z,7.00
2022-09-26T16:57:29.384Z,7.45
2022-09-26T17:00:37.278Z,6.70
2022-09-26T17:03:20.928Z,8.02
2022-09-26T17:05:48.945Z,9.85
2022-09-26T17:08:17.755Z,8.32
2022-09-26T17:10:46.171Z,10.73
2022-09-26T17:13:22.836Z,10.60
2022-09-26T17:15:55.729Z,10.27
2022-09-26T17:18:29.492Z,9.20
2022-09-26T17:20:59.132Z,9.65
2022-09-26T17:23:39.811Z,9.27
2022-09-26T17:26:12.624Z,9.30
2022-09-26T17:28:42.507Z,10.10
2022-09-26T17:31:14.704Z,9.32
2022-09-26T17:33:42.603Z,8.82
2022-09-26T17:36:23.178Z,8.32
2022-09-26T17:38:50.566Z,9.70
2022-09-26T17:41:18.211Z,8.20
2022-09-26T17:43:45.553Z,7.75
2022-09-26T17:46:15.858Z,8.57
2022-09-26T17:48:43.991Z,9.02
2022-09-26T17:51:14.770Z,10.85
2022-09-26T17:53:50.555Z,12.48
2022-09-26T17:56:19.517Z,9.45
2022-09-26T17:58:48.193Z,9.45
2022-09-26T18:01:25.433Z,11.35
2022-09-26T18:03:55.813Z,9.93
2022-09-26T18:06:27.511Z,11.23
2022-09-26T18:08:59.628Z,12.70
2022-09-26T18:11:27.472Z,12.15
2022-09-26T18:13:55.644Z,12.65
2022-09-26T18:16:24.034Z,13.70
2022-09-26T18:18:51.524Z,13.95
2022-09-26T18:21:20.228Z,16.30
2022-09-26T18:23:55.807Z,15.98
2022-09-26T18:26:33.390Z,17.73
2022-09-26T18:29:06.641Z,17.62
2022-09-26T18:31:37.059Z,16.65
2022-09-26T18:34:04.563Z,13.95
2022-09-26T18:36:36.022Z,14.68
2022-09-26T18:39:04.132Z,14.20
2022-09-26T18:41:32.146Z,19.12
2022-09-26T18:44:00.678Z,18.27
2022-09-26T18:46:29.590Z,20.35
2022-09-26T18:48:58.494Z,16.25
2022-09-26T18:51:27.021Z,15.27
2022-09-26T18:53:55.013Z,17.58
2022-09-26T18:56:41.223Z,17.08
2022-09-26T18:59:10.563Z,18.55
2022-09-26T19:01:41.771Z,20.05
2022-09-26T19:04:28.545Z,19.87
2022-09-26T19:07:02.040Z,22.95
2022-09-26T19:09:35.421Z,20.20
2022-09-26T19:12:04.166Z,15.98
2022-09-26T19:14:32.282Z,16.33
2022-09-26T19:17:00.139Z,15.93
2022-09-26T19:19:32.689Z,18.20
2022-09-26T19:22:08.000Z,19.90
2022-09-26T19:24:41.716Z,19.37
2022-09-26T19:27:19.923Z,22.48
2022-09-26T19:30:21.142Z,22.33
2022-09-26T19:32:50.677Z,57.45
2022-09-26T19:35:24.945Z,29.33
2022-09-26T19:37:52.871Z,31.40
2022-09-26T19:40:21.327Z,25.73
2022-09-26T19:42:48.935Z,29.05
2022-09-26T19:45:18.364Z,21.95
2022-09-26T19:47:47.887Z,18.52
2022-09-26T19:50:20.707Z,17.77
2022-09-26T19:52:49.403Z,14.07
2022-09-26T19:55:25.114Z,13.75
2022-09-26T19:57:53.662Z,14.68
2022-09-26T20:00:21.087Z,14.68
2022-09-26T20:02:51.274Z,12.43
2022-09-26T20:05:22.803Z,12.25
2022-09-26T20:07:50.922Z,11.55
2022-09-26T20:10:20.386Z,11.30
2022-09-26T20:12:48.623Z,10.88
2022-09-26T20:15:20.154Z,12.10
2022-09-26T20:17:47.890Z,12.65
2022-09-26T20:20:23.683Z,13.20
2022-09-26T20:22:53.190Z,13.02
2022-09-26T20:25:27.303Z,12.50
2022-09-26T20:27:56.195Z,11.23
2022-09-26T20:30:43.344Z,22.50
2022-09-26T20:33:14.124Z,26.65
2022-09-26T20:35:44.928Z,20.48
2022-09-26T20:38:25.270Z,25.75
2022-09-26T20:41:15.641Z,19.50
2022-09-26T20:43:47.683Z,20.00
2022-09-26T20:46:15.490Z,15.90
2022-09-26T20:48:45.642Z,16.08
2022-09-26T20:51:19.777Z,15.65
2022-09-26T20:53:47.435Z,17.77
2022-09-26T20:56:20.616Z,16.25
2022-09-26T20:58:48.649Z,12.77
2022-09-26T21:01:17.776Z,10.77
2022-09-26T21:03:50.024Z,12.80
2022-09-26T21:06:20.651Z,12.93
2022-09-26T21:08:48.546Z,11.70
2022-09-26T21:11:18.671Z,11.82
2022-09-26T21:13:46.448Z,10.73
2022-09-26T21:16:15.582Z,12.55
2022-09-26T21:18:43.946Z,13.15
2022-09-26T21:21:37.560Z,10.27
2022-09-26T21:24:06.600Z,12.37
2022-09-26T21:26:34.237Z,11.85
2022-09-26T21:29:01.586Z,12.73
2022-09-26T21:31:31.506Z,12.63
2022-09-26T21:34:00.136Z,13.73
2022-09-26T21:36:34.904Z,14.55
2022-09-26T21:39:03.115Z,12.23
2022-09-26T21:41:30.592Z,14.23
2022-09-26T21:44:01.812Z,13.13
2022-09-26T21:46:29.520Z,18.30
2022-09-26T21:48:56.975Z,13.85
2022-09-26T21:51:26.909Z,14.50
2022-09-26T21:53:58.351Z,13.15
2022-09-26T21:56:30.423Z,12.80
2022-09-26T21:58:58.452Z,12.77
2022-09-26T22:01:25.882Z,13.18
2022-09-26T22:03:53.670Z,14.68
2022-09-26T22:06:21.187Z,14.70
2022-09-26T22:08:48.684Z,14.63
2022-09-26T22:11:16.290Z,12.18
2022-09-26T22:13:43.623Z,14.52
2022-09-26T22:16:19.198Z,14.98
2022-09-26T22:18:46.825Z,14.82
2022-09-26T22:21:14.188Z,14.02
2022-09-26T22:23:41.622Z,13.57
2022-09-26T22:26:09.411Z,13.98
2022-09-26T22:28:36.743Z,13.38
2022-09-26T22:31:05.115Z,13.32
2022-09-26T22:33:33.254Z,12.60
2022-09-26T22:36:01.016Z,13.43
2022-09-26T22:38:28.434Z,13.93
2022-09-26T22:40:57.593Z,12.05
2022-09-26T22:43:25.369Z,10.88
2022-09-26T22:45:52.917Z,12.77
2022-09-26T22:48:20.640Z,11.80
2022-09-26T22:50:48.137Z,10.40
2022-09-26T22:53:15.493Z,11.80
2022-09-26T22:55:52.332Z,11.05
2022-09-26T22:58:19.679Z,12.05
2022-09-26T23:00:48.044Z,10.38
2022-09-26T23:03:15.439Z,11.80
2022-09-26T23:05:42.752Z,10.45
2022-09-26T23:08:10.383Z,12.07
2022-09-26T23:10:37.773Z,10.25
2022-09-26T23:13:05.169Z,11.80
2022-09-26T23:15:32.820Z,13.30
2022-09-26T23:18:01.782Z,11.82
2022-09-26T23:20:29.295Z,10.45
2022-09-26T23:22:56.900Z,11.07
2022-09-26T23:25:24.264Z,13.10
2022-09-26T23:27:51.601Z,10.27
2022-09-26T23:30:19.271Z,10.98
2022-09-26T23:32:46.613Z,10.60
2022-09-26T23:35:14.803Z,11.05
2022-09-26T23:37:42.474Z,11.02
2022-09-26T23:40:10.115Z,11.50
2022-09-26T23:42:37.449Z,13.32
2022-09-26T23:45:05.503Z,11.10
2022-09-26T23:47:32.891Z,10.95
2022-09-26T23:50:00.279Z,11.12
2022-09-26T23:52:27.902Z,12.30
2022-09-26T23:54:55.233Z,12.27
2022-09-26T23:57:23.257Z,10.02
2022-09-26T23:59:50.865Z,10.68
